Moneta, VA (24121)

4:35 PM EST on December 05, 2016 (GMT -0500)
Smith Mountain Lake @ Hales Ford Bridge | | Change Station

Elev 825 ft 37.15 °N, 79.68 °W | Updated 4 seconds ago

Partly Cloudy
Partly Cloudy
52.9 °F
Feels Like 52.9 °F
N
0.0
Wind Variable Wind from NE
Gusts 1.0 mph

Today
High -- | Low -- °F
--% Chance of Precip.
Yesterday
High -- | Low -- °F
Precip. -- in
Pressure 30.02 in
Visibility 10.0 miles
Clouds Few 22000 ft
Dew Point 46 °F
Humidity 77%
Rainfall 0.11 in
Snow Depth Not available.
7:17 AM 5:00 PM
Waxing Crescent, 35% visible
METAR KROA 052054Z 03006KT 10SM FEW220 13/01 A3001 RMK AO2 SLP164 T01330006 56001
Pressure 30.02 in
Visibility 10.0 miles
Clouds Few 22000 ft
Dew Point 46 °F
Humidity 77%
Rainfall 0.11 in
Snow Depth Not available.
7:17 AM 5:00 PM
Waxing Crescent, 35% visible
METAR KROA 052054Z 03006KT 10SM FEW220 13/01 A3001 RMK AO2 SLP164 T01330006 56001

10-Day Weather Forecast

Almanac

Astronomy

Dec. 05, 2016 Rise Set
Actual Time
Civil Twilight
Nautical Twilight
Astronomical Twilight
Moon
Length of Visible Light
Length of Day
Tomorrow will be .
, % of the Moon is Illuminated

Today's Extremes

State Highs State Lows

Community

WunderPhotos

Upload Photos

1,955,863 photos uploaded!

WunderBlog® & News

Nearby

Air Quality

  Air Quality AQ Index Pollutant
Not available.

Snow Depth

Station Depth Elevation

Earthquake Activity

City Distance Mag. Time & Date
Minimum magnitude displayed is 2.5.

Coastal Water Temperatures

Place Temperature

Stations

Nearby Weather Stations

Station Location Temp. Windchill Dew Point Humidity Wind Precip. Elev Updated Type
                   

Watches & Warnings

There are currently no watches in effect.